createdAt,value
2023-04-18T00:00:38.521Z,37.36
2023-04-18T00:01:38.507Z,37.36
2023-04-18T00:02:38.723Z,37.37
2023-04-18T00:03:38.620Z,37.37
2023-04-18T00:04:38.662Z,37.34
2023-04-18T00:05:38.463Z,37.35
2023-04-18T00:06:38.483Z,37.35
2023-04-18T00:07:38.524Z,37.35
2023-04-18T00:08:38.562Z,37.36
2023-04-18T00:09:38.581Z,37.35
2023-04-18T00:10:38.583Z,37.37
2023-04-18T00:11:38.564Z,37.38
2023-04-18T00:12:38.594Z,37.37
2023-04-18T00:13:38.629Z,37.37
2023-04-18T00:14:38.663Z,37.35
2023-04-18T00:15:38.671Z,37.34
2023-04-18T00:16:38.702Z,37.33
2023-04-18T00:17:38.798Z,37.36
2023-04-18T00:18:38.729Z,37.37
2023-04-18T00:19:38.767Z,37.37
2023-04-18T00:20:38.865Z,37.36
2023-04-18T00:21:38.819Z,37.35
2023-04-18T00:22:38.819Z,37.37
2023-04-18T00:23:38.837Z,37.34
2023-04-18T00:24:38.862Z,37.37
2023-04-18T00:25:39.019Z,37.37
2023-04-18T00:26:38.899Z,37.39
2023-04-18T00:27:38.923Z,37.38
2023-04-18T00:28:38.982Z,37.37
2023-04-18T00:29:38.966Z,37.31
2023-04-18T00:30:38.990Z,37.37
2023-04-18T00:31:39.013Z,37.39
2023-04-18T00:32:39.046Z,37.36
2023-04-18T00:33:39.059Z,37.34
2023-04-18T00:34:39.065Z,37.36
2023-04-18T00:35:39.082Z,37.34
2023-04-18T00:36:39.093Z,37.34
2023-04-18T00:37:39.116Z,37.37
2023-04-18T00:38:39.134Z,37.37
2023-04-18T00:39:39.187Z,37.36
2023-04-18T00:40:39.205Z,37.34
2023-04-18T00:41:39.235Z,37.35
2023-04-18T00:42:39.219Z,37.35
2023-04-18T00:43:39.230Z,37.35
2023-04-18T00:44:39.256Z,37.33
2023-04-18T00:45:39.277Z,37.35
2023-04-18T00:46:39.371Z,37.36
2023-04-18T00:47:39.364Z,37.36
2023-04-18T00:48:39.356Z,37.34
2023-04-18T00:49:39.400Z,37.32
2023-04-18T00:50:39.378Z,37.33
2023-04-18T00:51:39.391Z,37.36
2023-04-18T00:52:39.455Z,37.34
2023-04-18T00:53:39.464Z,37.35
2023-04-18T00:54:39.493Z,37.35
2023-04-18T00:55:39.507Z,37.32
2023-04-18T00:56:39.521Z,37.34
2023-04-18T00:57:39.548Z,37.34
2023-04-18T00:58:39.557Z,37.34
2023-04-18T00:59:39.597Z,37.32
2023-04-18T01:00:39.618Z,37.32
2023-04-18T01:01:39.649Z,37.34
2023-04-18T01:02:39.800Z,37.36
2023-04-18T01:03:39.918Z,37.36
2023-04-18T01:04:39.776Z,37.36
2023-04-18T01:05:40.182Z,37.36
2023-04-18T01:06:39.724Z,37.37
2023-04-18T01:07:39.755Z,37.34
2023-04-18T01:08:39.786Z,37.34
2023-04-18T01:09:39.825Z,37.34
2023-04-18T01:10:39.818Z,37.33
2023-04-18T01:11:39.873Z,37.34
2023-04-18T01:12:39.881Z,37.35
2023-04-18T01:13:39.888Z,37.33
2023-04-18T01:14:39.946Z,37.33
2023-04-18T01:15:40.001Z,37.35
2023-04-18T01:16:39.970Z,37.36
2023-04-18T01:17:40.027Z,37.32
2023-04-18T01:18:40.009Z,37.35
2023-04-18T01:19:40.080Z,37.36
2023-04-18T01:20:40.052Z,37.36
2023-04-18T01:21:40.059Z,37.33
2023-04-18T01:22:40.109Z,37.35
2023-04-18T01:23:40.107Z,37.36
2023-04-18T01:24:40.129Z,37.32
2023-04-18T01:25:40.212Z,37.36
2023-04-18T01:26:40.187Z,37.35
2023-04-18T01:27:40.224Z,37.38
2023-04-18T01:28:40.225Z,37.37
2023-04-18T01:29:40.299Z,37.34
2023-04-18T01:30:40.268Z,37.32
2023-04-18T01:31:40.342Z,37.36
2023-04-18T01:32:40.457Z,37.34
2023-04-18T01:33:40.354Z,37.34
2023-04-18T01:34:40.426Z,37.36
2023-04-18T01:35:40.415Z,37.38
2023-04-18T01:36:40.417Z,37.35
2023-04-18T01:37:40.481Z,37.33
2023-04-18T01:38:40.463Z,37.36
2023-04-18T01:39:40.526Z,37.34
2023-04-18T01:40:40.531Z,37.35
2023-04-18T01:41:40.543Z,37.35
2023-04-18T01:42:40.598Z,37.33
2023-04-18T01:43:40.632Z,37.33
2023-04-18T01:44:40.613Z,37.33
2023-04-18T01:45:40.683Z,37.35
2023-04-18T01:46:40.767Z,37.31
2023-04-18T01:47:40.714Z,37.31
2023-04-18T01:48:40.731Z,37.35
2023-04-18T01:49:40.758Z,37.37
2023-04-18T01:50:40.779Z,37.36
2023-04-18T01:51:40.820Z,37.37
2023-04-18T01:52:40.820Z,37.36
2023-04-18T01:53:40.880Z,37.35
2023-04-18T01:54:40.878Z,37.35
2023-04-18T01:55:40.931Z,37.36
2023-04-18T01:56:40.955Z,37.35
2023-04-18T01:57:40.992Z,37.35
2023-04-18T01:58:40.981Z,37.38
2023-04-18T01:59:41.056Z,37.35
2023-04-18T02:00:41.145Z,37.32
2023-04-18T02:01:41.088Z,37.35
2023-04-18T02:02:41.210Z,37.37
2023-04-18T02:03:41.299Z,37.35
2023-04-18T02:04:41.136Z,37.35
2023-04-18T02:05:41.184Z,37.34
2023-04-18T02:06:41.188Z,37.34
2023-04-18T02:07:41.227Z,37.34
2023-04-18T02:08:41.267Z,37.37
2023-04-18T02:09:41.280Z,37.36
2023-04-18T02:10:41.352Z,37.36
2023-04-18T02:11:41.324Z,37.34
2023-04-18T02:12:41.356Z,37.35
2023-04-18T02:13:41.372Z,37.34
2023-04-18T02:14:41.427Z,37.33
2023-04-18T02:15:41.460Z,37.34
2023-04-18T02:16:41.544Z,37.35
2023-04-18T02:17:41.652Z,37.30
2023-04-18T02:18:41.521Z,37.29
2023-04-18T02:19:41.598Z,37.31
2023-04-18T02:20:41.589Z,37.27
2023-04-18T02:21:41.635Z,37.29
2023-04-18T02:22:41.672Z,37.26
2023-04-18T02:23:41.676Z,37.28
2023-04-18T02:24:41.715Z,37.27
2023-04-18T02:25:41.739Z,37.27
2023-04-18T02:26:41.812Z,37.28
2023-04-18T02:27:41.798Z,37.26
2023-04-18T02:28:41.827Z,37.29
2023-04-18T02:29:41.876Z,37.27
2023-04-18T02:30:41.885Z,37.28
2023-04-18T02:31:41.941Z,37.28
2023-04-18T02:32:41.984Z,37.28
2023-04-18T02:33:41.971Z,37.29
2023-04-18T02:34:41.999Z,37.26
2023-04-18T02:35:42.039Z,37.27
2023-04-18T02:36:42.040Z,37.29
2023-04-18T02:37:42.064Z,37.29
2023-04-18T02:38:42.150Z,37.28
2023-04-18T02:39:42.127Z,37.26
2023-04-18T02:40:42.179Z,37.28
2023-04-18T02:41:42.175Z,37.29
2023-04-18T02:42:42.189Z,37.27
2023-04-18T02:43:42.221Z,37.28
2023-04-18T02:44:42.258Z,37.28
2023-04-18T02:45:42.298Z,37.30
2023-04-18T02:46:42.328Z,37.28
2023-04-18T02:47:53.873Z,37.28
2023-04-18T02:48:43.321Z,37.32
2023-04-18T02:49:42.331Z,37.32
2023-04-18T02:50:42.302Z,37.32
2023-04-18T02:51:42.304Z,37.29
2023-04-18T02:52:42.316Z,37.27
2023-04-18T02:53:42.280Z,37.27
2023-04-18T02:54:42.301Z,37.25
2023-04-18T02:55:42.269Z,37.23
2023-04-18T02:56:42.274Z,37.25
2023-04-18T02:57:42.301Z,37.23
2023-04-18T02:58:42.246Z,37.23
2023-04-18T02:59:42.248Z,37.23
2023-04-18T03:00:42.227Z,37.23
2023-04-18T03:01:42.270Z,37.20
2023-04-18T03:02:42.323Z,37.23
2023-04-18T03:03:42.240Z,37.21
2023-04-18T03:04:42.279Z,37.23
2023-04-18T03:05:42.224Z,37.25
2023-04-18T03:06:42.337Z,37.22
2023-04-18T03:07:42.260Z,37.22
2023-04-18T03:08:42.292Z,37.23
2023-04-18T03:09:42.330Z,37.22
2023-04-18T03:10:42.363Z,37.22
2023-04-18T03:11:42.380Z,37.24
2023-04-18T03:12:42.412Z,37.23
2023-04-18T03:13:42.442Z,37.23
2023-04-18T03:14:42.478Z,37.23
2023-04-18T03:15:42.539Z,37.24
2023-04-18T03:16:42.524Z,37.25
2023-04-18T03:17:42.623Z,37.25
2023-04-18T03:18:42.589Z,37.25
2023-04-18T03:19:42.707Z,37.23
2023-04-18T03:20:42.662Z,37.26
2023-04-18T03:21:42.728Z,37.25
2023-04-18T03:22:42.754Z,37.27
2023-04-18T03:23:42.753Z,37.25
2023-04-18T03:24:42.834Z,37.26
2023-04-18T03:25:42.823Z,37.25
2023-04-18T03:26:42.930Z,37.24
2023-04-18T03:27:42.940Z,37.23
2023-04-18T03:28:43.017Z,37.22
2023-04-18T03:29:43.094Z,37.21
2023-04-18T03:30:43.149Z,37.19
2023-04-18T03:31:43.268Z,37.20
2023-04-18T03:32:43.284Z,37.21
2023-04-18T03:33:43.283Z,37.24
2023-04-18T03:34:43.335Z,37.24
2023-04-18T03:35:43.452Z,37.23
2023-04-18T03:36:44.515Z,37.22
2023-04-18T03:37:43.506Z,37.23
2023-04-18T03:38:43.592Z,37.22
2023-04-18T03:39:43.619Z,37.23
2023-04-18T03:40:43.659Z,37.23
2023-04-18T03:41:43.707Z,37.25
2023-04-18T03:42:43.731Z,37.25
2023-04-18T03:43:43.755Z,37.24
2023-04-18T03:44:43.843Z,37.26
2023-04-18T03:45:43.817Z,37.26
2023-04-18T03:46:43.960Z,37.29
2023-04-18T03:47:43.989Z,37.25
2023-04-18T03:48:43.948Z,37.29
2023-04-18T03:49:44.017Z,37.27
2023-04-18T03:50:44.030Z,37.23
2023-04-18T03:51:44.043Z,37.23
2023-04-18T03:52:44.136Z,37.22
2023-04-18T03:53:44.170Z,37.23
2023-04-18T03:54:44.205Z,37.24
2023-04-18T03:55:44.216Z,37.25
2023-04-18T03:56:44.247Z,37.24
2023-04-18T03:57:44.284Z,37.23
2023-04-18T03:58:44.346Z,37.22
2023-04-18T03:59:45.585Z,37.22
2023-04-18T04:00:44.383Z,37.24
2023-04-18T04:01:44.471Z,37.21
2023-04-18T04:02:44.577Z,37.21
2023-04-18T04:03:44.668Z,37.18
2023-04-18T04:04:44.609Z,37.21
2023-04-18T04:05:44.578Z,37.21
2023-04-18T04:06:44.640Z,37.18
2023-04-18T04:07:44.666Z,37.20
2023-04-18T04:08:44.676Z,37.19
2023-04-18T04:09:44.779Z,37.17
2023-04-18T04:10:44.751Z,37.21
2023-04-18T04:11:44.781Z,37.23
2023-04-18T04:12:44.846Z,37.19
2023-04-18T04:13:44.919Z,37.18
2023-04-18T04:14:44.894Z,37.19
2023-04-18T04:15:44.946Z,37.20
2023-04-18T04:16:45.083Z,37.18
2023-04-18T04:17:45.075Z,37.18
2023-04-18T04:18:45.054Z,37.17
2023-04-18T04:19:45.144Z,37.19
2023-04-18T04:20:45.158Z,37.20
2023-04-18T04:21:45.160Z,37.20
2023-04-18T04:22:45.198Z,37.22
2023-04-18T04:23:45.263Z,37.22
2023-04-18T04:24:45.290Z,37.21
2023-04-18T04:25:45.335Z,37.17
2023-04-18T04:26:45.364Z,37.21
2023-04-18T04:27:45.392Z,37.19
2023-04-18T04:28:45.444Z,37.19
2023-04-18T04:29:45.491Z,37.19
2023-04-18T04:30:45.567Z,37.19
2023-04-18T04:31:45.605Z,37.20
2023-04-18T04:32:45.701Z,37.21
2023-04-18T04:33:45.649Z,37.18
2023-04-18T04:34:45.675Z,37.18
2023-04-18T04:35:45.734Z,37.19
2023-04-18T04:36:45.748Z,37.21
2023-04-18T04:37:45.792Z,37.23
2023-04-18T04:38:45.834Z,37.27
2023-04-18T04:39:45.908Z,37.23
2023-04-18T04:40:45.913Z,37.23
2023-04-18T04:41:45.937Z,37.23
2023-04-18T04:42:45.976Z,37.25
2023-04-18T04:43:46.011Z,37.27
2023-04-18T04:44:46.075Z,37.27
2023-04-18T04:45:46.123Z,37.25
2023-04-18T04:46:46.125Z,37.27
2023-04-18T04:47:46.228Z,37.29
2023-04-18T04:48:46.199Z,37.29
2023-04-18T04:49:46.232Z,37.29
2023-04-18T04:50:46.279Z,37.30
2023-04-18T04:51:46.335Z,37.32
2023-04-18T04:52:46.342Z,37.31
2023-04-18T04:53:46.398Z,37.34
2023-04-18T04:54:46.427Z,37.34
2023-04-18T04:55:46.444Z,37.32
2023-04-18T04:56:46.497Z,37.33
2023-04-18T04:57:46.566Z,37.35
2023-04-18T04:58:46.551Z,37.36
2023-04-18T04:59:46.622Z,37.33
2023-04-18T05:00:46.649Z,37.35
2023-04-18T05:01:46.781Z,37.38
2023-04-18T05:02:46.865Z,37.37
2023-04-18T05:03:46.879Z,37.39
2023-04-18T05:04:46.814Z,37.37
2023-04-18T05:05:46.840Z,37.36
2023-04-18T05:06:46.871Z,37.39
2023-04-18T05:07:46.897Z,37.39
2023-04-18T05:08:46.944Z,37.38
2023-04-18T05:09:46.993Z,37.40
2023-04-18T05:10:47.008Z,37.39
2023-04-18T05:11:47.122Z,37.39
2023-04-18T05:12:47.119Z,37.36
2023-04-18T05:13:47.159Z,37.36
2023-04-18T05:14:47.158Z,37.35
2023-04-18T05:15:47.235Z,37.35
2023-04-18T05:16:47.245Z,37.36
2023-04-18T05:17:47.321Z,37.38
2023-04-18T05:18:47.320Z,37.34
2023-04-18T05:19:47.369Z,37.48
2023-04-18T05:20:47.416Z,37.50
2023-04-18T05:21:47.449Z,37.47
2023-04-18T05:22:47.809Z,37.37
2023-04-18T05:23:47.534Z,37.38
2023-04-18T05:24:47.593Z,37.34
2023-04-18T05:25:47.632Z,37.20
2023-04-18T05:26:47.686Z,37.20
2023-04-18T05:27:47.827Z,37.28
2023-04-18T05:28:47.759Z,37.29
2023-04-18T05:29:47.817Z,37.26
2023-04-18T05:30:47.912Z,37.21
2023-04-18T05:31:47.855Z,37.24
2023-04-18T05:32:47.933Z,37.19
2023-04-18T05:33:47.898Z,37.09
2023-04-18T05:34:48.348Z,37.13
2023-04-18T05:35:48.156Z,37.21
2023-04-18T05:36:47.940Z,37.27
2023-04-18T05:37:48.083Z,37.42
2023-04-18T05:38:47.994Z,37.63
2023-04-18T05:39:48.315Z,37.78
2023-04-18T05:40:48.027Z,38.11
2023-04-18T05:41:47.962Z,38.16
2023-04-18T05:42:48.334Z,38.51
2023-04-18T05:43:58.194Z,38.54
2023-04-18T05:44:49.341Z,38.59
2023-04-18T05:45:48.124Z,38.64
2023-04-18T05:46:48.186Z,38.81
2023-04-18T05:47:48.086Z,39.05
2023-04-18T05:48:48.047Z,39.15
2023-04-18T05:49:48.349Z,39.29
2023-04-18T05:50:48.072Z,39.46
2023-04-18T05:51:48.004Z,39.52
2023-04-18T05:52:47.995Z,39.55
2023-04-18T05:53:48.306Z,39.73
2023-04-18T05:54:48.030Z,40.02
2023-04-18T05:55:48.002Z,40.23
2023-04-18T05:56:48.004Z,40.48
2023-04-18T05:57:48.043Z,40.56
2023-04-18T05:58:48.053Z,40.69
2023-04-18T05:59:48.078Z,40.85
2023-04-18T06:00:48.138Z,40.84
2023-04-18T06:01:48.113Z,40.94
2023-04-18T06:02:48.265Z,41.05
2023-04-18T06:03:48.318Z,41.06
2023-04-18T06:04:48.283Z,41.09
2023-04-18T06:05:48.226Z,41.25
2023-04-18T06:06:48.191Z,41.28
2023-04-18T06:07:48.201Z,41.36
2023-04-18T06:08:48.236Z,41.37
2023-04-18T06:09:48.238Z,41.47
2023-04-18T06:10:48.244Z,41.56
2023-04-18T06:11:48.208Z,41.67
2023-04-18T06:12:48.245Z,41.74
2023-04-18T06:13:48.368Z,41.86
2023-04-18T06:14:48.239Z,41.92
2023-04-18T06:15:48.270Z,41.96
2023-04-18T06:16:48.209Z,42.04
2023-04-18T06:17:48.263Z,42.10
2023-04-18T06:18:48.224Z,42.22
2023-04-18T06:19:48.210Z,42.22
2023-04-18T06:20:48.207Z,42.34
2023-04-18T06:21:48.288Z,42.36
2023-04-18T06:22:48.297Z,43.12
2023-04-18T06:23:48.229Z,42.85
2023-04-18T06:24:48.282Z,42.65
2023-04-18T06:25:48.357Z,42.71
2023-04-18T06:26:49.048Z,42.86
2023-04-18T06:27:48.322Z,43.10
2023-04-18T06:28:48.434Z,43.12
2023-04-18T06:29:48.454Z,43.48
2023-04-18T06:30:48.455Z,43.32
2023-04-18T06:31:48.544Z,43.66
2023-04-18T06:32:48.573Z,43.71
2023-04-18T06:33:48.543Z,43.53
2023-04-18T06:34:48.597Z,43.59
2023-04-18T06:35:48.642Z,43.63
2023-04-18T06:36:48.669Z,43.56
2023-04-18T06:37:48.736Z,43.90
2023-04-18T06:38:48.861Z,42.82
2023-04-18T06:39:48.856Z,41.40
2023-04-18T06:40:49.350Z,40.34
2023-04-18T06:41:49.351Z,40.16
2023-04-18T06:42:48.866Z,39.77
2023-04-18T06:44:02.160Z,39.25
2023-04-18T06:44:49.908Z,38.79
2023-04-18T06:45:49.404Z,38.81
2023-04-18T06:46:48.870Z,38.69
2023-04-18T06:47:49.016Z,38.90
2023-04-18T06:48:49.873Z,38.32
2023-04-18T06:49:49.068Z,38.11
2023-04-18T06:50:49.337Z,38.64
2023-04-18T06:51:49.206Z,39.12
2023-04-18T06:52:49.187Z,39.38
2023-04-18T06:53:49.252Z,39.52
2023-04-18T06:54:49.292Z,39.74
2023-04-18T06:55:49.339Z,39.81
2023-04-18T06:56:49.388Z,39.87
2023-04-18T06:57:49.439Z,39.83
2023-04-18T06:58:49.508Z,39.99
2023-04-18T06:59:49.494Z,39.82
2023-04-18T07:00:49.920Z,39.90
2023-04-18T07:01:49.559Z,39.67
2023-04-18T07:02:49.694Z,39.72
2023-04-18T07:03:50.442Z,39.78
2023-04-18T07:04:49.644Z,39.87
2023-04-18T07:05:49.859Z,39.91
2023-04-18T07:06:49.636Z,39.96
2023-04-18T07:07:49.681Z,40.00
2023-04-18T07:08:49.666Z,40.10
2023-04-18T07:09:49.639Z,40.07
2023-04-18T07:10:49.648Z,40.17
2023-04-18T07:11:49.674Z,40.18
2023-04-18T07:12:49.640Z,40.24
2023-04-18T07:13:49.640Z,40.26
2023-04-18T07:14:49.648Z,40.31
2023-04-18T07:15:49.687Z,40.34
2023-04-18T07:16:49.729Z,40.36
2023-04-18T07:17:49.787Z,40.31
2023-04-18T07:18:49.798Z,40.35
2023-04-18T07:19:49.794Z,40.37
2023-04-18T07:20:49.848Z,40.40
2023-04-18T07:21:49.918Z,40.43
2023-04-18T07:22:49.936Z,40.46
2023-04-18T07:23:49.998Z,40.49
2023-04-18T07:24:50.059Z,40.58
2023-04-18T07:25:50.116Z,40.51
2023-04-18T07:26:50.208Z,40.50
2023-04-18T07:27:50.243Z,40.56
2023-04-18T07:28:50.357Z,40.62
2023-04-18T07:29:50.430Z,40.63
2023-04-18T07:30:50.491Z,40.67
2023-04-18T07:31:50.523Z,40.60
2023-04-18T07:32:50.625Z,40.84
2023-04-18T07:33:50.900Z,40.63
2023-04-18T07:34:50.603Z,40.81
2023-04-18T07:35:50.680Z,40.83
2023-04-18T07:36:50.703Z,40.75
2023-04-18T07:37:50.758Z,40.60
2023-04-18T07:38:50.901Z,40.77
2023-04-18T07:39:50.809Z,40.80
2023-04-18T07:40:50.811Z,40.99
2023-04-18T07:41:50.826Z,40.69
2023-04-18T07:42:50.862Z,40.65
2023-04-18T07:43:50.954Z,40.66
2023-04-18T07:44:51.001Z,40.90
2023-04-18T07:45:51.110Z,40.82
2023-04-18T07:46:51.858Z,40.82
2023-04-18T07:47:51.221Z,40.95
2023-04-18T07:48:51.239Z,40.97
2023-04-18T07:49:51.399Z,41.01
2023-04-18T07:50:51.380Z,41.08
2023-04-18T07:51:51.389Z,41.17
2023-04-18T07:52:51.444Z,41.15
2023-04-18T07:53:51.518Z,41.17
2023-04-18T07:54:51.521Z,41.35
2023-04-18T07:55:51.957Z,41.35
2023-04-18T07:56:51.640Z,41.40
2023-04-18T07:57:51.684Z,40.98
2023-04-18T07:58:51.712Z,41.49
2023-04-18T07:59:51.883Z,41.73
2023-04-18T08:00:51.887Z,41.81
2023-04-18T08:01:51.959Z,41.69
2023-04-18T08:02:52.033Z,41.64
2023-04-18T08:03:52.225Z,41.86
2023-04-18T08:04:52.348Z,41.85
2023-04-18T08:05:52.043Z,41.89
2023-04-18T08:06:52.797Z,41.78
2023-04-18T08:07:52.123Z,41.81
2023-04-18T08:08:52.145Z,41.77
2023-04-18T08:09:52.216Z,41.82
2023-04-18T08:10:52.228Z,42.26
2023-04-18T08:11:52.255Z,41.98
2023-04-18T08:12:52.315Z,42.06
2023-04-18T08:13:52.344Z,42.37
2023-04-18T08:14:52.386Z,42.20
2023-04-18T08:15:52.431Z,42.14
2023-04-18T08:16:52.446Z,42.13
2023-04-18T08:17:52.510Z,42.11
2023-04-18T08:18:52.529Z,42.26
2023-04-18T08:19:52.533Z,42.25
2023-04-18T08:20:52.606Z,42.65
2023-04-18T08:21:52.577Z,42.51
2023-04-18T08:23:05.609Z,42.36
2023-04-18T08:23:53.606Z,42.85
2023-04-18T08:25:04.317Z,41.46
2023-04-18T08:25:53.906Z,41.57
2023-04-18T08:26:52.576Z,41.59
2023-04-18T08:27:52.583Z,41.42
2023-04-18T08:28:52.560Z,41.03
2023-04-18T08:29:52.589Z,40.15
2023-04-18T08:30:53.418Z,40.45
2023-04-18T08:31:52.618Z,39.60
2023-04-18T08:32:52.714Z,40.23
2023-04-18T08:33:52.567Z,40.01
2023-04-18T08:34:52.916Z,39.25
2023-04-18T08:35:52.538Z,39.90
2023-04-18T08:36:52.549Z,39.47
2023-04-18T08:37:52.540Z,38.56
2023-04-18T08:38:52.583Z,39.05
2023-04-18T08:39:52.902Z,38.95
2023-04-18T08:40:52.924Z,38.37
2023-04-18T08:41:52.714Z,38.06
2023-04-18T08:42:52.810Z,38.19
2023-04-18T08:43:53.440Z,37.78
2023-04-18T08:44:52.947Z,37.78
2023-04-18T08:45:52.935Z,37.78
2023-04-18T08:46:53.423Z,37.63
2023-04-18T08:47:53.125Z,38.05
2023-04-18T08:48:53.013Z,37.85
2023-04-18T08:49:52.983Z,37.74
2023-04-18T08:50:53.424Z,37.28
2023-04-18T08:51:52.969Z,37.70
2023-04-18T08:52:52.982Z,37.70
2023-04-18T08:53:53.043Z,37.34
2023-04-18T08:54:53.419Z,37.65
2023-04-18T08:55:53.416Z,36.97
2023-04-18T08:56:53.063Z,36.63
2023-04-18T08:57:53.093Z,37.24
2023-04-18T08:58:53.062Z,37.07
2023-04-18T08:59:53.434Z,36.98
2023-04-18T09:00:53.082Z,36.86
2023-04-18T09:01:53.132Z,36.80
2023-04-18T09:02:53.174Z,36.25
2023-04-18T09:03:53.146Z,35.97
2023-04-18T09:04:53.075Z,36.15
2023-04-18T09:05:53.058Z,36.05
2023-04-18T09:06:53.075Z,35.96
2023-04-18T09:07:53.048Z,35.94
2023-04-18T09:08:53.063Z,36.14
2023-04-18T09:09:53.058Z,35.98
2023-04-18T09:10:53.088Z,35.76
2023-04-18T09:11:53.087Z,35.76
2023-04-18T09:12:53.056Z,35.67
2023-04-18T09:13:53.046Z,35.55
2023-04-18T09:14:53.062Z,35.20
2023-04-18T09:15:53.114Z,35.40
2023-04-18T09:16:53.071Z,35.32
2023-04-18T09:17:53.122Z,35.36
2023-04-18T09:18:53.065Z,35.19
2023-04-18T09:19:53.088Z,35.26
2023-04-18T09:20:53.462Z,35.25
2023-04-18T09:21:53.490Z,35.16
2023-04-18T09:22:53.103Z,35.03
2023-04-18T09:23:53.109Z,35.01
2023-04-18T09:24:53.109Z,35.11
2023-04-18T09:25:53.119Z,35.09
2023-04-18T09:26:53.199Z,34.68
2023-04-18T09:27:53.138Z,34.98
2023-04-18T09:28:53.966Z,35.03
2023-04-18T09:29:53.807Z,34.80
2023-04-18T09:30:53.463Z,34.70
2023-04-18T09:31:53.149Z,34.40
2023-04-18T09:32:53.194Z,34.42
2023-04-18T09:33:53.198Z,34.42
2023-04-18T09:34:53.242Z,34.50
2023-04-18T09:35:53.433Z,34.47
2023-04-18T09:36:53.365Z,34.55
2023-04-18T09:37:53.326Z,34.58
2023-04-18T09:38:56.203Z,34.38
2023-04-18T09:39:53.415Z,34.30
2023-04-18T09:40:53.345Z,34.20
2023-04-18T09:41:53.352Z,34.27
2023-04-18T09:42:53.342Z,34.26
2023-04-18T09:43:53.334Z,34.07
2023-04-18T09:44:54.575Z,34.02
2023-04-18T09:45:53.481Z,33.92
2023-04-18T09:46:53.304Z,34.00
2023-04-18T09:47:53.388Z,33.88
2023-04-18T09:48:53.313Z,33.91
2023-04-18T09:49:53.297Z,33.80
2023-04-18T09:50:53.452Z,33.75
2023-04-18T09:51:53.423Z,33.62
2023-04-18T09:52:53.257Z,33.62
2023-04-18T09:53:53.313Z,33.56
2023-04-18T09:54:53.260Z,33.69
2023-04-18T09:55:54.869Z,33.75
2023-04-18T09:56:53.267Z,33.61
2023-04-18T09:57:53.234Z,33.63
2023-04-18T09:58:53.244Z,33.73
2023-04-18T09:59:53.239Z,33.70
2023-04-18T10:00:53.234Z,33.72
2023-04-18T10:01:53.301Z,33.57
2023-04-18T10:02:53.340Z,33.62
2023-04-18T10:03:53.244Z,33.74
2023-04-18T10:04:53.270Z,33.68
2023-04-18T10:05:53.179Z,33.59
2023-04-18T10:06:53.998Z,33.48
2023-04-18T10:07:53.160Z,33.40
2023-04-18T10:08:53.164Z,33.44
2023-04-18T10:09:53.155Z,33.44
2023-04-18T10:10:53.153Z,33.51
2023-04-18T10:11:53.148Z,33.49
2023-04-18T10:12:53.141Z,33.53
2023-04-18T10:13:53.148Z,33.44
2023-04-18T10:14:53.201Z,33.54
2023-04-18T10:15:53.152Z,33.38
2023-04-18T10:16:53.094Z,33.42
2023-04-18T10:18:03.337Z,33.48
2023-04-18T10:18:54.082Z,33.51
2023-04-18T10:19:53.069Z,33.40
2023-04-18T10:20:53.102Z,33.33
2023-04-18T10:21:53.093Z,33.36
2023-04-18T10:22:53.059Z,33.43
2023-04-18T10:23:53.057Z,33.45
2023-04-18T10:24:53.117Z,33.31
2023-04-18T10:25:53.083Z,33.38
2023-04-18T10:26:53.453Z,33.28
2023-04-18T10:27:53.093Z,33.36
2023-04-18T10:28:53.343Z,33.80
2023-04-18T10:29:53.115Z,33.88
2023-04-18T10:30:53.080Z,34.24
2023-04-18T10:31:53.589Z,34.31
2023-04-18T10:32:53.219Z,35.05
2023-04-18T10:34:03.795Z,35.17
2023-04-18T10:34:54.172Z,35.49
2023-04-18T10:35:53.158Z,35.66
2023-04-18T10:36:53.142Z,35.86
2023-04-18T10:37:53.144Z,36.02
2023-04-18T10:38:53.157Z,35.95
2023-04-18T10:39:53.152Z,35.95
2023-04-18T10:40:53.137Z,36.34
2023-04-18T10:41:53.120Z,36.65
2023-04-18T10:42:53.115Z,36.76
2023-04-18T10:43:53.106Z,36.98
2023-04-18T10:44:53.127Z,37.15
2023-04-18T10:45:53.097Z,37.36
2023-04-18T10:46:53.228Z,37.37
2023-04-18T10:47:53.162Z,37.49
2023-04-18T10:48:53.085Z,37.64
2023-04-18T10:49:53.148Z,37.64
2023-04-18T10:50:53.218Z,37.72
2023-04-18T10:51:53.420Z,37.91
2023-04-18T10:52:53.307Z,37.94
2023-04-18T10:53:53.358Z,38.05
2023-04-18T10:54:53.394Z,38.22
2023-04-18T10:55:53.491Z,38.26
2023-04-18T10:56:53.586Z,38.42
2023-04-18T10:57:53.528Z,38.50
2023-04-18T10:58:53.562Z,38.69
2023-04-18T10:59:53.685Z,38.81
2023-04-18T11:00:53.647Z,38.92
2023-04-18T11:01:53.677Z,38.92
2023-04-18T11:02:53.878Z,39.02
2023-04-18T11:03:53.855Z,39.08
2023-04-18T11:04:53.785Z,39.31
2023-04-18T11:05:53.859Z,39.29
2023-04-18T11:06:53.832Z,39.31
2023-04-18T11:07:53.894Z,39.57
2023-04-18T11:08:53.906Z,39.61
2023-04-18T11:09:53.976Z,39.83
2023-04-18T11:10:53.985Z,39.96
2023-04-18T11:11:54.057Z,40.00
2023-04-18T11:12:54.064Z,40.47
2023-04-18T11:13:54.116Z,40.51
2023-04-18T11:14:54.122Z,40.45
2023-04-18T11:15:54.171Z,40.50
2023-04-18T11:16:54.455Z,39.10
2023-04-18T11:17:54.326Z,40.22
2023-04-18T11:18:54.255Z,40.57
2023-04-18T11:19:54.321Z,40.44
2023-04-18T11:20:54.396Z,40.25
2023-04-18T11:21:54.463Z,40.17
2023-04-18T11:22:54.434Z,40.24
2023-04-18T11:23:54.449Z,40.16
2023-04-18T11:24:54.483Z,40.15
2023-04-18T11:25:54.504Z,40.24
2023-04-18T11:26:55.471Z,40.21
2023-04-18T11:27:54.562Z,40.18
2023-04-18T11:28:54.612Z,40.17
2023-04-18T11:29:54.645Z,40.19
2023-04-18T11:30:54.737Z,40.24
2023-04-18T11:31:57.734Z,40.11
2023-04-18T11:32:54.716Z,40.16
2023-04-18T11:33:54.714Z,40.20
2023-04-18T11:34:54.704Z,40.15
2023-04-18T11:35:54.687Z,40.15
2023-04-18T11:36:54.673Z,40.20
2023-04-18T11:37:54.676Z,40.21
2023-04-18T11:38:54.657Z,40.19
2023-04-18T11:39:54.667Z,40.14
2023-04-18T11:40:54.669Z,40.17
2023-04-18T11:41:54.649Z,40.09
2023-04-18T11:42:54.665Z,40.05
2023-04-18T11:43:54.651Z,39.94
2023-04-18T11:44:54.631Z,39.95
2023-04-18T11:45:54.690Z,39.91
2023-04-18T11:46:54.630Z,39.88
2023-04-18T11:47:54.606Z,39.79
2023-04-18T11:48:54.605Z,39.78
2023-04-18T11:49:56.900Z,39.69
2023-04-18T11:50:54.693Z,39.76
2023-04-18T11:51:54.758Z,39.71
2023-04-18T11:52:54.829Z,39.67
2023-04-18T11:53:54.888Z,39.66
2023-04-18T11:54:54.967Z,39.60
2023-04-18T11:55:54.949Z,39.57
2023-04-18T11:56:55.008Z,39.54
2023-04-18T11:57:55.055Z,39.56
2023-04-18T11:58:55.101Z,39.52
2023-04-18T11:59:55.159Z,39.42
2023-04-18T12:00:55.200Z,39.38
2023-04-18T12:01:58.608Z,39.34
2023-04-18T12:02:55.381Z,39.38
2023-04-18T12:03:55.388Z,39.21
2023-04-18T12:04:55.775Z,39.20
2023-04-18T12:05:55.381Z,39.19
2023-04-18T12:06:55.234Z,39.15
2023-04-18T12:07:55.242Z,39.05
2023-04-18T12:08:55.228Z,39.08
2023-04-18T12:09:55.238Z,39.14
2023-04-18T12:10:55.204Z,39.08
2023-04-18T12:11:55.231Z,39.01
2023-04-18T12:12:55.289Z,38.95
2023-04-18T12:13:55.226Z,38.84
2023-04-18T12:14:55.189Z,38.83
2023-04-18T12:15:55.232Z,38.85
2023-04-18T12:16:55.212Z,38.90
2023-04-18T12:17:55.203Z,38.87
2023-04-18T12:18:55.186Z,38.79
2023-04-18T12:19:55.137Z,38.77
2023-04-18T12:20:55.138Z,38.70
2023-04-18T12:21:55.151Z,38.77
2023-04-18T12:22:55.167Z,38.74
2023-04-18T12:23:55.160Z,38.67
2023-04-18T12:24:55.148Z,38.76
2023-04-18T12:25:55.109Z,38.77
2023-04-18T12:26:56.039Z,38.75
2023-04-18T12:27:55.124Z,38.70
2023-04-18T12:28:55.090Z,38.74
2023-04-18T12:29:55.114Z,38.71
2023-04-18T12:30:55.090Z,38.73
2023-04-18T12:31:55.567Z,38.74
2023-04-18T12:32:55.216Z,38.72
2023-04-18T12:33:55.251Z,38.62
2023-04-18T12:34:55.306Z,38.62
2023-04-18T12:35:55.998Z,38.67
2023-04-18T12:36:55.580Z,38.61
2023-04-18T12:37:55.468Z,38.53
2023-04-18T12:38:55.487Z,38.48
2023-04-18T12:39:55.559Z,38.47
2023-04-18T12:40:55.615Z,38.47
2023-04-18T12:41:55.995Z,38.51
2023-04-18T12:42:56.052Z,38.47
2023-04-18T12:43:55.844Z,38.54
2023-04-18T12:44:55.860Z,38.55
2023-04-18T12:45:55.945Z,38.54
2023-04-18T12:46:56.051Z,38.51
2023-04-18T12:47:56.558Z,38.55
2023-04-18T12:48:56.128Z,38.52
2023-04-18T12:49:56.178Z,38.50
2023-04-18T12:50:56.215Z,38.51
2023-04-18T12:51:56.279Z,38.44
2023-04-18T12:52:56.338Z,38.44